KAUH

Aurora Municipal - Al Potter Field Airport

Aurora, Nebraska, USA
METAR KAUH 162355Z AUTO 02009KT 10SM CLR 03/M02 A2989 RMK AO2 T00321021 10110 20032
Observed Flight Rules
Dec-16 @ 23:55 UTC (35 minutes ago) Visual Flight Rules
Wind Visibility Clouds
20° at 9 knots 10 miles
  • Clear skies
Temperatures Readings
Current 3°C / 37°F
Dewpoint -2°C / 28°F
Humidity 70%
Altimeter 29.89" Hg
Pressure 1012 hPa
Elevation 550
METAR KAUH 162355Z AUTO 02009KT 10SM CLR 03/M02 A2989 RMK AO2 T00321021 10110 20032
Observed Flight Rules
Dec-16 @ 23:55 UTC
(35 minutes ago)
VFR
Wind Visibility
20° at 9 knots 10 miles
Clouds
  • Clear skies
Temperature Dewpoint
3°C / 37°F -2°C / 28°F
Humidity Altimeter Pressure
70% 29.89" Hg 1012 hPa